sensor_id;sensor_type;location;lat;lon;timestamp;P1;durP1;ratioP1;P2;durP2;ratioP2
63581;SDS011;49727;51.078;17.066;2023-02-15T00:00:24;20.13;;;12.02;;
63581;SDS011;49727;51.078;17.066;2023-02-15T00:31:21;25.83;;;12.88;;
63581;SDS011;49727;51.078;17.066;2023-02-15T00:46:22;41.28;;;19.05;;
63581;SDS011;49727;51.078;17.066;2023-02-15T01:01:22;49.25;;;19.77;;
63581;SDS011;49727;51.078;17.066;2023-02-15T01:16:24;33.15;;;18.05;;
63581;SDS011;49727;51.078;17.066;2023-02-15T01:31:26;39.20;;;18.15;;
63581;SDS011;49727;51.078;17.066;2023-02-15T01:46:34;37.78;;;16.88;;
63581;SDS011;49727;51.078;17.066;2023-02-15T02:01:38;38.05;;;18.38;;
63581;SDS011;49727;51.078;17.066;2023-02-15T02:16:41;38.67;;;17.70;;
63581;SDS011;49727;51.078;17.066;2023-02-15T02:46:51;34.75;;;17.35;;
63581;SDS011;49727;51.078;17.066;2023-02-15T03:01:58;31.67;;;16.00;;
63581;SDS011;49727;51.078;17.066;2023-02-15T03:17:04;31.13;;;17.33;;
63581;SDS011;49727;51.078;17.066;2023-02-15T03:32:08;33.38;;;19.58;;
63581;SDS011;49727;51.078;17.066;2023-02-15T03:47:22;33.58;;;16.88;;
63581;SDS011;49727;51.078;17.066;2023-02-15T04:02:27;39.53;;;20.92;;
63581;SDS011;49727;51.078;17.066;2023-02-15T04:17:37;46.25;;;19.75;;
63581;SDS011;49727;51.078;17.066;2023-02-15T04:32:38;30.90;;;18.42;;
63581;SDS011;49727;51.078;17.066;2023-02-15T04:47:38;35.35;;;16.45;;
63581;SDS011;49727;51.078;17.066;2023-02-15T05:02:38;38.22;;;16.20;;
63581;SDS011;49727;51.078;17.066;2023-02-15T05:17:39;37.08;;;16.85;;
63581;SDS011;49727;51.078;17.066;2023-02-15T05:32:39;36.33;;;17.50;;
63581;SDS011;49727;51.078;17.066;2023-02-15T05:47:40;43.28;;;18.95;;
63581;SDS011;49727;51.078;17.066;2023-02-15T06:02:40;38.10;;;17.60;;
63581;SDS011;49727;51.078;17.066;2023-02-15T06:17:41;39.83;;;17.98;;
63581;SDS011;49727;51.078;17.066;2023-02-15T06:32:42;40.80;;;18.98;;
63581;SDS011;49727;51.078;17.066;2023-02-15T06:47:43;37.33;;;19.42;;
63581;SDS011;49727;51.078;17.066;2023-02-15T07:02:43;34.55;;;18.27;;
63581;SDS011;49727;51.078;17.066;2023-02-15T07:17:44;34.00;;;16.42;;
63581;SDS011;49727;51.078;17.066;2023-02-15T07:32:44;39.65;;;20.95;;
63581;SDS011;49727;51.078;17.066;2023-02-15T07:48:04;36.92;;;20.27;;
63581;SDS011;49727;51.078;17.066;2023-02-15T08:03:05;28.35;;;15.07;;
63581;SDS011;49727;51.078;17.066;2023-02-15T08:18:15;23.88;;;15.20;;
63581;SDS011;49727;51.078;17.066;2023-02-15T08:33:15;28.20;;;14.40;;
63581;SDS011;49727;51.078;17.066;2023-02-15T08:48:17;26.98;;;15.02;;
63581;SDS011;49727;51.078;17.066;2023-02-15T09:03:18;25.30;;;13.43;;
63581;SDS011;49727;51.078;17.066;2023-02-15T09:18:18;22.65;;;14.48;;
63581;SDS011;49727;51.078;17.066;2023-02-15T09:33:19;21.13;;;13.80;;
63581;SDS011;49727;51.078;17.066;2023-02-15T10:19:03;21.40;;;14.67;;
63581;SDS011;49727;51.078;17.066;2023-02-15T10:49:45;20.80;;;14.17;;
63581;SDS011;49727;51.078;17.066;2023-02-15T11:35:32;21.33;;;16.57;;
63581;SDS011;49727;51.078;17.066;2023-02-15T11:50:37;22.93;;;18.60;;
63581;SDS011;49727;51.078;17.066;2023-02-15T12:05:39;28.13;;;19.90;;
63581;SDS011;49727;51.078;17.066;2023-02-15T12:20:42;22.73;;;17.47;;
63581;SDS011;49727;51.078;17.066;2023-02-15T12:35:43;22.83;;;18.17;;
63581;SDS011;49727;51.078;17.066;2023-02-15T12:50:44;24.27;;;18.60;;
63581;SDS011;49727;51.078;17.066;2023-02-15T13:05:53;21.57;;;17.70;;
63581;SDS011;49727;51.078;17.066;2023-02-15T13:20:56;24.20;;;17.80;;
63581;SDS011;49727;51.078;17.066;2023-02-15T13:51:21;21.67;;;17.93;;
63581;SDS011;49727;51.078;17.066;2023-02-15T14:21:53;21.87;;;17.27;;
63581;SDS011;49727;51.078;17.066;2023-02-15T14:37:02;22.50;;;16.97;;
63581;SDS011;49727;51.078;17.066;2023-02-15T14:52:04;21.33;;;16.07;;
63581;SDS011;49727;51.078;17.066;2023-02-15T15:22:22;22.50;;;16.50;;
63581;SDS011;49727;51.078;17.066;2023-02-15T15:53:01;28.70;;;14.80;;
63581;SDS011;49727;51.078;17.066;2023-02-15T16:08:03;25.07;;;14.83;;
63581;SDS011;49727;51.078;17.066;2023-02-15T16:23:49;26.47;;;13.70;;
63581;SDS011;49727;51.078;17.066;2023-02-15T16:53:43;33.95;;;15.98;;
63581;SDS011;49727;51.078;17.066;2023-02-15T17:08:47;37.28;;;17.73;;
63581;SDS011;49727;51.078;17.066;2023-02-15T17:23:49;43.65;;;21.08;;
63581;SDS011;49727;51.078;17.066;2023-02-15T17:53:57;47.35;;;23.10;;
63581;SDS011;49727;51.078;17.066;2023-02-15T18:09:17;44.97;;;21.25;;
63581;SDS011;49727;51.078;17.066;2023-02-15T18:24:38;48.75;;;24.75;;
63581;SDS011;49727;51.078;17.066;2023-02-15T18:39:39;51.92;;;24.33;;
63581;SDS011;49727;51.078;17.066;2023-02-15T18:54:43;47.43;;;23.07;;
63581;SDS011;49727;51.078;17.066;2023-02-15T19:09:45;63.53;;;26.90;;
63581;SDS011;49727;51.078;17.066;2023-02-15T19:24:48;56.95;;;25.05;;
63581;SDS011;49727;51.078;17.066;2023-02-15T19:39:50;45.05;;;21.08;;
63581;SDS011;49727;51.078;17.066;2023-02-15T19:54:52;55.75;;;25.77;;
63581;SDS011;49727;51.078;17.066;2023-02-15T20:09:53;59.15;;;25.75;;
63581;SDS011;49727;51.078;17.066;2023-02-15T20:24:54;65.72;;;31.02;;
63581;SDS011;49727;51.078;17.066;2023-02-15T20:39:55;55.97;;;27.02;;
63581;SDS011;49727;51.078;17.066;2023-02-15T20:54:56;68.53;;;30.02;;
63581;SDS011;49727;51.078;17.066;2023-02-15T21:09:56;64.40;;;27.45;;
63581;SDS011;49727;51.078;17.066;2023-02-15T21:24:59;83.97;;;34.22;;
63581;SDS011;49727;51.078;17.066;2023-02-15T21:39:59;69.97;;;31.15;;
63581;SDS011;49727;51.078;17.066;2023-02-15T21:55:04;66.47;;;29.85;;
63581;SDS011;49727;51.078;17.066;2023-02-15T22:10:09;68.05;;;29.45;;
63581;SDS011;49727;51.078;17.066;2023-02-15T22:25:12;71.10;;;30.98;;
63581;SDS011;49727;51.078;17.066;2023-02-15T22:40:14;89.25;;;32.47;;
63581;SDS011;49727;51.078;17.066;2023-02-15T22:55:16;65.13;;;28.33;;
63581;SDS011;49727;51.078;17.066;2023-02-15T23:10:19;73.25;;;30.65;;
63581;SDS011;49727;51.078;17.066;2023-02-15T23:25:21;67.25;;;29.42;;
63581;SDS011;49727;51.078;17.066;2023-02-15T23:40:24;57.47;;;26.13;;
63581;SDS011;49727;51.078;17.066;2023-02-15T23:55:44;63.65;;;28.02;;
